Aeroporto :
LOGIN :

Iscrizione | Disclaimer

   EN    FR    IT 

 










Sommario :    VFR   VFR Marginale   IFR   IFR Intensivo   IFR Molto Intensivo
Visibilità : 
Base nubi : 
>= 8 km
>= 3000ft
5 / 8 km
1000 / 3000 ft
1500m / 5 km
500 / 1000 ft
800 / 1500m
200 / 500 ft
< 800m
< 200 ft
Simboli :   Temporali  Nebbia  Neve Forte  Precipitazioni Forti  Vento > 20 kt
SIGMETs :   Varie  Temporali  Ghiacco  Turbolenza  Onda orograficha  Ceneri Vulcaniche






- Altitudine del aeroporto : 614 ft
- Codice IATA : CRL


EBCI - Charleroi

ULTIMO METAR :
  • 132020Z 26006KT 230V290 9999 -SHRA FEW010 SCT015 BKN035 15/13 Q1012 NOSIG

METARs OBSOLETI :
  • 131950Z 27006KT 230V300 9999 FEW010 SCT015 BKN038 15/13 Q1012 TEMPO 4000 SHRA
  • 131920Z 25013KT 210V300 9999 -SHRA FEW010 SCT015 BKN025 17/15 Q1011 TEMPO 4000 SHRA
  • 131850Z 21010KT 9999 FEW030 BKN040 19/16 Q1010 TEMPO 4000 SHRA
  • 131820Z 20008KT 180V240 9999 SCT030TCU 19/16 Q1010 TEMPO 4000 SHRA

TAF TAF EBCI
Valido dal 13 a 18 ore il 15 a 00 ore UTC


131706Z 1318/1424 24009KT 9999 FEW030
TEMPO 1318/1320 25015G25KT 3500 SHRA
PROB30
TEMPO 1323/1404 3000 BR BKN004
PROB30
TEMPO 1404/1408 3000 -RA BR SCT004 BKN008
BECMG 1409/1411 16010KT



MetMap, La meteo Aeronautica in un colpo d'occhio ! - Copyright ORBIFLY Dicembre 2007 - Disclaimer

ORBIFLY MET'MAP TEAM :

Programmazione e sviluppo : Alexandra Zaïnal
Concezione e sviluppo : Baudouin d'Aumeries
Co-Programmazione e sviluppo : Marc-Olivier Méhu
Supporto tecnico e logistico : Manuel Goepfert
Aiuto per la traduzione : Arnaldo La Scala

Contatto : metmap@orbifly.com




FONTI E CREDITI :

   NOAA